Time;durP1;ratioP1;P1;durP2;ratioP2;P2;SDS_P1;SDS_P2;PMS_P1;PMS_P2;Temp;Humidity;BMP_temperature;BMP_pressure;BME280_temperature;BME280_humidity;BME280_pressure;Samples;Min_cycle;Max_cycle;Signal;HPM_P1;HPM_P2
2021/07/25 00:01:18;;;;;;;8.80;4.07;;;21.60;60.60;;;;;;5009286;28;20029;-86
2021/07/25 00:03:44;;;;;;;7.45;4.32;;;21.60;60.90;;;;;;5008826;28;20037;-84
2021/07/25 00:06:16;;;;;;;8.30;3.78;;;21.60;60.60;;;;;;5010561;28;20498;-90
2021/07/25 00:08:42;;;;;;;12.07;3.78;;;21.70;60.60;;;;;;5010563;28;20120;-88
2021/07/25 00:11:08;;;;;;;5.63;3.65;;;21.60;60.60;;;;;;5009770;28;20656;-86
2021/07/25 00:13:39;;;;;;;6.57;3.60;;;21.70;60.80;;;;;;5013756;28;20503;-88
2021/07/25 00:16:05;;;;;;;8.10;3.72;;;21.70;60.70;;;;;;5013317;28;20033;-89
2021/07/25 00:18:30;;;;;;;12.30;4.07;;;21.60;61.00;;;;;;5031138;28;20032;-91
2021/07/25 00:20:56;;;;;;;7.15;3.90;;;21.50;61.20;;;;;;5012926;28;20065;-87
2021/07/25 00:23:24;;;;;;;6.22;4.05;;;21.40;61.60;;;;;;5012770;28;20025;-86
2021/07/25 00:25:51;;;;;;;13.20;4.82;;;21.40;61.80;;;;;;5012864;28;20094;-88
2021/07/25 00:28:18;;;;;;;8.07;4.18;;;21.30;61.90;;;;;;5013198;28;20033;-88
2021/07/25 00:30:44;;;;;;;9.43;4.85;;;21.30;62.10;;;;;;5013596;28;20489;-87
2021/07/25 00:33:10;;;;;;;8.05;4.38;;;21.30;62.20;;;;;;5012602;28;20029;-87
2021/07/25 00:35:37;;;;;;;8.73;4.47;;;21.20;62.30;;;;;;5030545;28;20041;-85
2021/07/25 00:38:03;;;;;;;12.45;5.03;;;21.10;62.70;;;;;;5013002;28;20106;-88
2021/07/25 00:40:36;;;;;;;5.70;3.58;;;21.10;62.80;;;;;;5012813;28;20025;-86
2021/07/25 00:43:02;;;;;;;7.03;4.45;;;21.10;63.10;;;;;;5012959;28;20037;-86
2021/07/25 00:45:29;;;;;;;8.60;4.20;;;21.00;63.20;;;;;;5030076;28;20038;-88
2021/07/25 00:47:55;;;;;;;9.55;4.53;;;21.00;63.80;;;;;;5030689;28;20110;-86
2021/07/25 00:50:20;;;;;;;5.53;3.83;;;20.90;64.10;;;;;;5012049;28;20380;-88
2021/07/25 00:52:46;;;;;;;6.80;4.25;;;20.80;64.30;;;;;;5012368;28;20083;-88
2021/07/25 00:55:12;;;;;;;8.23;4.53;;;20.90;64.70;;;;;;5011516;28;20044;-79
2021/07/25 00:57:38;;;;;;;8.18;5.10;;;20.90;64.90;;;;;;5028738;28;20025;-85
2021/07/25 01:00:07;;;;;;;6.75;4.60;;;20.80;65.20;;;;;;5029425;28;20490;-82
2021/07/25 01:02:40;;;;;;;8.23;5.05;;;20.80;65.50;;;;;;5029041;28;20059;-83
2021/07/25 01:05:16;;;;;;;7.57;4.50;;;20.70;65.60;;;;;;5028368;28;20033;-83
2021/07/25 01:07:55;;;;;;;13.05;5.10;;;20.70;66.00;;;;;;5011224;28;20084;-84
2021/07/25 01:10:29;;;;;;;13.57;5.50;;;20.70;66.50;;;;;;5011366;28;20056;-81
2021/07/25 01:13:01;;;;;;;8.68;4.70;;;20.60;66.80;;;;;;5010736;28;20021;-81
2021/07/25 01:15:31;;;;;;;7.82;4.90;;;20.50;67.20;;;;;;5029184;28;20116;-84
2021/07/25 01:17:59;;;;;;;9.02;5.70;;;20.50;67.70;;;;;;5028555;28;20100;-80
2021/07/25 01:20:25;;;;;;;13.80;5.00;;;20.40;67.90;;;;;;5010550;28;20026;-86
2021/07/25 01:22:52;;;;;;;11.23;5.75;;;20.40;68.20;;;;;;5027463;28;20053;-83
2021/07/25 01:25:21;;;;;;;7.45;5.15;;;20.40;69.00;;;;;;5010750;28;20033;-82
2021/07/25 01:27:55;;;;;;;7.25;5.22;;;20.40;68.50;;;;;;5010834;28;20036;-82
2021/07/25 01:30:28;;;;;;;8.85;4.82;;;20.30;68.70;;;;;;5010396;28;20022;-85
2021/07/25 01:32:58;;;;;;;9.82;5.57;;;20.30;69.00;;;;;;5028622;28;20611;-81
2021/07/25 01:35:25;;;;;;;8.38;5.78;;;20.30;69.20;;;;;;5010192;28;20187;-84
2021/07/25 01:37:51;;;;;;;8.85;6.05;;;20.20;69.50;;;;;;5010719;28;20036;-84
2021/07/25 01:40:20;;;;;;;8.98;5.60;;;20.20;69.60;;;;;;5010297;28;20056;-82
2021/07/25 01:42:47;;;;;;;7.85;5.03;;;20.30;69.60;;;;;;5028429;28;20045;-86
2021/07/25 01:45:13;;;;;;;10.15;5.30;;;20.20;69.50;;;;;;5010291;28;20399;-83
2021/07/25 01:47:39;;;;;;;27.30;6.18;;;20.20;69.60;;;;;;5010531;28;20049;-87
2021/07/25 01:50:06;;;;;;;7.10;4.90;;;20.30;69.50;;;;;;5010097;28;20033;-86
2021/07/25 01:52:32;;;;;;;11.25;4.40;;;20.30;69.20;;;;;;5027932;28;20490;-80
2021/07/25 01:54:57;;;;;;;7.30;4.60;;;20.40;68.70;;;;;;5010309;28;20040;-84
2021/07/25 01:57:23;;;;;;;11.40;4.30;;;20.40;68.90;;;;;;5027688;28;20061;-84
2021/07/25 01:59:49;;;;;;;10.02;5.07;;;20.40;68.90;;;;;;5010392;28;20028;-83
2021/07/25 02:02:14;;;;;;;11.43;4.95;;;20.40;69.00;;;;;;5010347;28;20048;-86
2021/07/25 02:04:40;;;;;;;8.75;4.30;;;20.40;69.60;;;;;;5009380;28;20514;-84
2021/07/25 02:07:06;;;;;;;8.38;4.80;;;20.40;69.70;;;;;;5009875;28;20892;-83
2021/07/25 02:09:36;;;;;;;9.30;4.43;;;20.40;69.20;;;;;;5027902;28;20438;-76
2021/07/25 02:12:05;;;;;;;11.13;4.85;;;20.50;69.10;;;;;;5027432;28;20501;-83
2021/07/25 02:14:33;;;;;;;9.73;4.43;;;20.50;69.10;;;;;;5009728;28;20029;-83
2021/07/25 02:16:59;;;;;;;6.82;4.25;;;20.50;69.00;;;;;;5009730;28;20034;-80
2021/07/25 02:19:25;;;;;;;6.72;4.35;;;20.60;68.90;;;;;;5027260;28;20087;-83
2021/07/25 02:21:51;;;;;;;6.85;3.90;;;20.60;68.80;;;;;;5027467;28;20037;-80
2021/07/25 02:24:19;;;;;;;9.55;3.97;;;20.60;68.90;;;;;;5027009;28;20025;-83
2021/07/25 02:26:45;;;;;;;7.28;4.75;;;20.60;68.90;;;;;;5009581;28;20320;-77
2021/07/25 02:29:11;;;;;;;13.13;4.05;;;20.50;69.10;;;;;;5009325;28;20406;-78
2021/07/25 02:31:37;;;;;;;6.57;4.50;;;20.50;69.20;;;;;;5027305;28;20063;-79
2021/07/25 02:34:02;;;;;;;8.73;5.15;;;20.50;69.50;;;;;;5026247;28;20491;-84
2021/07/25 02:36:28;;;;;;;12.75;5.78;;;20.50;69.80;;;;;;5008890;28;20410;-83
2021/07/25 02:38:54;;;;;;;8.25;5.10;;;20.40;70.40;;;;;;5009739;28;20067;-79
2021/07/25 02:41:20;;;;;;;14.98;4.82;;;20.40;70.30;;;;;;5027031;28;20075;-76
2021/07/25 02:43:45;;;;;;;5.95;4.15;;;20.30;70.60;;;;;;5009392;28;20513;-79
2021/07/25 02:46:11;;;;;;;8.48;4.35;;;20.40;70.50;;;;;;5026852;28;20045;-81
2021/07/25 02:48:37;;;;;;;6.97;4.78;;;20.40;70.50;;;;;;5009361;28;20033;-80
2021/07/25 02:51:02;;;;;;;8.05;4.90;;;20.40;70.60;;;;;;5008688;28;20041;-80
2021/07/25 02:53:28;;;;;;;13.02;4.68;;;20.40;70.80;;;;;;5008980;28;20075;-77
2021/07/25 02:55:54;;;;;;;14.77;4.63;;;20.50;71.00;;;;;;5027019;28;20497;-78
2021/07/25 02:58:20;;;;;;;7.75;4.35;;;20.50;70.20;;;;;;5026833;28;20025;-79
2021/07/25 03:00:45;;;;;;;6.95;4.15;;;20.60;70.40;;;;;;5009047;28;20040;-79
2021/07/25 03:03:11;;;;;;;6.90;4.63;;;20.60;70.20;;;;;;5008557;28;20053;-78
2021/07/25 03:05:37;;;;;;;8.23;5.13;;;20.70;70.20;;;;;;5026560;28;20518;-77
2021/07/25 03:08:03;;;;;;;11.43;5.53;;;20.70;70.10;;;;;;5008390;28;20026;-80
2021/07/25 03:10:29;;;;;;;8.27;4.53;;;20.70;70.10;;;;;;5008792;28;20033;-79
2021/07/25 03:12:55;;;;;;;10.32;5.03;;;20.80;69.90;;;;;;5008778;28;20021;-79
2021/07/25 03:15:20;;;;;;;8.07;5.35;;;20.80;69.90;;;;;;5008996;28;20025;-80
2021/07/25 03:17:47;;;;;;;9.68;5.35;;;21.00;69.50;;;;;;5008791;28;20025;-85
2021/07/25 03:20:13;;;;;;;12.15;4.95;;;21.00;69.10;;;;;;5008464;28;20029;-81
2021/07/25 03:22:38;;;;;;;8.27;4.30;;;21.00;68.70;;;;;;5026673;28;20108;-80
2021/07/25 03:25:05;;;;;;;7.85;4.68;;;21.00;68.70;;;;;;5008523;28;20128;-82
2021/07/25 03:27:30;;;;;;;7.35;4.00;;;21.00;68.70;;;;;;5026748;28;20036;-79
2021/07/25 03:29:56;;;;;;;14.30;4.53;;;21.10;68.30;;;;;;5008629;28;20034;-81
2021/07/25 03:32:23;;;;;;;6.60;3.80;;;21.10;68.10;;;;;;5007941;28;20022;-79
2021/07/25 03:34:48;;;;;;;9.73;4.30;;;21.20;68.00;;;;;;5008228;28;20046;-81
2021/07/25 03:37:16;;;;;;;7.13;4.22;;;21.30;67.90;;;;;;5026101;28;20524;-82
2021/07/25 03:39:44;;;;;;;9.45;4.47;;;21.40;67.70;;;;;;5009100;28;20033;-82
2021/07/25 03:42:11;;;;;;;11.68;3.88;;;21.40;67.30;;;;;;5026181;28;20032;-78
2021/07/25 03:44:37;;;;;;;13.23;4.65;;;21.60;67.10;;;;;;5008443;28;20064;-82
2021/07/25 03:47:03;;;;;;;11.50;4.05;;;21.70;66.60;;;;;;5010583;28;20041;-81
2021/07/25 03:49:28;;;;;;;9.60;4.65;;;21.80;66.30;;;;;;5029784;28;20026;-81
2021/07/25 03:51:54;;;;;;;8.25;4.43;;;21.80;66.10;;;;;;5030227;28;20526;-81
2021/07/25 03:54:20;;;;;;;8.90;4.00;;;22.00;66.20;;;;;;5029686;28;20034;-81
2021/07/25 03:56:45;;;;;;;12.13;4.18;;;22.00;65.80;;;;;;5029872;28;20503;-81
2021/07/25 03:59:11;;;;;;;10.30;3.83;;;22.00;65.90;;;;;;5030085;28;20041;-80
2021/07/25 04:01:37;;;;;;;8.00;4.38;;;22.10;65.80;;;;;;5012427;28;20518;-81
2021/07/25 04:04:02;;;;;;;10.40;4.65;;;22.20;66.10;;;;;;5029910;28;20029;-78
2021/07/25 04:06:30;;;;;;;13.68;5.07;;;22.20;66.40;;;;;;5029703;28;20596;-81
2021/07/25 04:08:56;;;;;;;7.53;4.45;;;22.30;64.90;;;;;;5011826;28;20030;-81
2021/07/25 04:11:21;;;;;;;7.22;4.50;;;22.40;64.70;;;;;;5012336;28;20041;-83
2021/07/25 04:13:48;;;;;;;9.20;3.95;;;22.50;64.40;;;;;;5012075;28;20033;-82
2021/07/25 04:16:14;;;;;;;7.47;4.88;;;22.70;64.90;;;;;;5030201;28;20143;-83
2021/07/25 04:18:40;;;;;;;6.35;4.65;;;22.80;64.20;;;;;;5029270;28;20041;-81
2021/07/25 04:21:05;;;;;;;11.10;5.65;;;22.90;62.90;;;;;;5030024;28;20026;-81
2021/07/25 04:23:31;;;;;;;6.10;4.53;;;23.00;62.80;;;;;;5011590;28;20038;-82
2021/07/25 04:25:57;;;;;;;8.43;4.85;;;23.10;61.90;;;;;;5011877;28;20037;-83
2021/07/25 04:28:23;;;;;;;7.50;5.10;;;23.20;61.50;;;;;;5029435;28;20071;-80
2021/07/25 04:30:49;;;;;;;9.85;4.97;;;23.30;61.60;;;;;;5011693;28;20030;-82
2021/07/25 04:33:16;;;;;;;13.55;5.05;;;23.40;61.20;;;;;;5010732;28;20509;-82
2021/07/25 04:35:43;;;;;;;9.77;4.53;;;23.50;60.70;;;;;;5011795;28;20083;-82
2021/07/25 04:38:09;;;;;;;10.80;5.57;;;23.70;60.80;;;;;;5011472;28;20040;-81
2021/07/25 04:40:35;;;;;;;11.20;5.88;;;23.80;59.60;;;;;;5011301;28;20410;-84
2021/07/25 04:43:03;;;;;;;9.68;4.68;;;24.00;58.60;;;;;;5011317;28;20514;-82
2021/07/25 04:46:02;;;;;;;8.30;5.60;;;24.10;57.50;;;;;;5011339;28;20260;-80
2021/07/25 04:48:39;;;;;;;9.38;5.40;;;24.10;57.60;;;;;;5010679;28;20112;-84
2021/07/25 04:51:06;;;;;;;10.57;5.07;;;24.00;57.30;;;;;;5011292;28;20084;-83
2021/07/25 04:53:40;;;;;;;10.65;4.88;;;23.90;58.00;;;;;;5011149;28;20125;-83
2021/07/25 04:56:09;;;;;;;12.23;5.97;;;23.80;58.60;;;;;;5029061;28;20040;-85
2021/07/25 04:58:50;;;;;;;10.52;6.13;;;23.60;58.60;;;;;;5029759;28;20017;-84
2021/07/25 05:01:21;;;;;;;7.95;5.20;;;23.60;58.90;;;;;;5011135;28;20038;-85
2021/07/25 05:03:47;;;;;;;7.85;5.30;;;23.60;58.60;;;;;;5010913;28;20112;-82
2021/07/25 05:06:14;;;;;;;9.48;5.22;;;23.60;58.90;;;;;;5029019;28;20493;-78
2021/07/25 05:08:40;;;;;;;14.68;5.43;;;23.60;59.60;;;;;;5010949;28;20534;-82
2021/07/25 05:11:16;;;;;;;7.35;5.22;;;23.50;61.10;;;;;;5028783;28;20021;-82
2021/07/25 05:13:46;;;;;;;12.02;5.30;;;23.40;62.50;;;;;;5010682;28;20485;-82
2021/07/25 05:16:16;;;;;;;6.70;5.93;;;23.40;63.30;;;;;;5028949;28;20106;-82
2021/07/25 05:18:56;;;;;;;9.20;5.30;;;23.40;64.40;;;;;;5028523;28;20183;-82
2021/07/25 05:21:30;;;;;;;8.13;5.70;;;23.30;65.10;;;;;;5010565;28;20035;-80
2021/07/25 05:24:01;;;;;;;13.93;6.10;;;23.30;65.50;;;;;;5011063;28;20041;-83
2021/07/25 05:26:27;;;;;;;8.00;5.63;;;23.20;66.00;;;;;;5010834;28;20041;-78
2021/07/25 05:28:57;;;;;;;6.85;5.15;;;23.20;66.20;;;;;;5010434;28;20028;-83
2021/07/25 05:31:32;;;;;;;7.95;4.88;;;23.20;66.40;;;;;;5028211;28;20557;-83
2021/07/25 05:33:59;;;;;;;12.18;5.22;;;23.10;65.40;;;;;;5010340;28;20042;-82
2021/07/25 05:36:25;;;;;;;9.93;5.38;;;23.10;65.70;;;;;;5010505;28;20576;-81
2021/07/25 05:38:51;;;;;;;10.15;5.18;;;23.20;61.90;;;;;;5010187;28;20021;-81
2021/07/25 05:41:17;;;;;;;12.35;5.78;;;23.10;61.30;;;;;;5010572;28;20033;-81
2021/07/25 05:43:42;;;;;;;9.65;4.82;;;23.00;61.20;;;;;;5027994;28;20441;-82
2021/07/25 05:46:08;;;;;;;11.60;4.65;;;22.90;62.10;;;;;;5028036;28;20033;-82
2021/07/25 05:48:34;;;;;;;10.40;4.63;;;22.80;62.40;;;;;;5027907;28;20065;-84
2021/07/25 05:51:02;;;;;;;11.32;5.32;;;22.80;62.80;;;;;;5010208;28;20026;-79
2021/07/25 05:53:32;;;;;;;12.50;4.93;;;22.80;63.60;;;;;;5027725;28;20025;-80
2021/07/25 05:55:58;;;;;;;11.15;5.38;;;22.70;65.10;;;;;;5009808;28;20030;-78
2021/07/25 05:58:24;;;;;;;17.35;5.13;;;22.60;66.60;;;;;;5010336;28;20021;-80
2021/07/25 06:00:50;;;;;;;8.30;5.85;;;22.40;69.10;;;;;;5009673;28;20494;-81
2021/07/25 06:03:15;;;;;;;7.78;4.90;;;22.20;70.90;;;;;;5026534;28;20025;-81
2021/07/25 06:05:41;;;;;;;20.20;5.82;;;22.00;72.80;;;;;;5009496;28;20029;-83
2021/07/25 06:08:08;;;;;;;12.13;6.45;;;21.80;74.20;;;;;;5009651;28;20029;-83
2021/07/25 06:10:35;;;;;;;8.60;5.65;;;21.50;75.50;;;;;;5008520;28;20828;-80
2021/07/25 06:13:03;;;;;;;7.70;5.32;;;21.40;77.60;;;;;;5008655;28;20025;-83
2021/07/25 06:15:32;;;;;;;11.45;5.63;;;21.40;79.90;;;;;;5008558;28;20025;-78
2021/07/25 06:18:01;;;;;;;8.98;5.82;;;21.20;80.20;;;;;;5008335;28;20099;-77
2021/07/25 06:20:28;;;;;;;15.23;6.68;;;21.20;80.90;;;;;;5026191;28;20032;-82
2021/07/25 06:22:55;;;;;;;11.50;5.95;;;21.00;81.20;;;;;;5025916;28;20513;-84
2021/07/25 06:25:32;;;;;;;9.30;5.45;;;21.00;81.30;;;;;;5008737;28;20029;-82
2021/07/25 06:28:00;;;;;;;11.38;5.82;;;21.00;82.10;;;;;;5006424;28;20030;-84
2021/07/25 06:30:27;;;;;;;8.75;5.47;;;21.10;81.60;;;;;;5009542;28;20025;-84
2021/07/25 06:33:00;;;;;;;11.20;6.15;;;21.10;81.30;;;;;;5009684;28;20040;-82
2021/07/25 06:35:34;;;;;;;6.78;5.07;;;21.20;80.60;;;;;;5027190;28;20049;-76
2021/07/25 06:38:22;;;;;;;15.27;6.25;;;21.30;81.00;;;;;;5026855;28;20033;-78
2021/07/25 06:40:51;;;;;;;8.38;5.75;;;21.40;79.10;;;;;;5026590;28;20134;-80
2021/07/25 06:43:17;;;;;;;7.25;5.43;;;21.70;78.20;;;;;;5009192;28;20545;-83
2021/07/25 06:45:43;;;;;;;8.18;6.43;;;22.20;77.20;;;;;;5008891;28;20065;-82
2021/07/25 06:48:26;;;;;;;10.43;6.20;;;23.00;73.40;;;;;;5009245;28;20064;-78
2021/07/25 06:50:56;;;;;;;12.07;5.97;;;23.60;71.40;;;;;;5009283;28;20119;-81
2021/07/25 06:53:24;;;;;;;7.47;5.82;;;24.30;68.80;;;;;;5009128;28;20067;-80
2021/07/25 06:55:52;;;;;;;8.98;6.20;;;25.50;65.80;;;;;;5009201;28;20040;-81
2021/07/25 06:58:19;;;;;;;8.52;6.80;;;26.40;63.00;;;;;;5026518;28;20137;-79
2021/07/25 07:00:44;;;;;;;11.82;7.68;;;27.20;60.70;;;;;;5008625;28;20035;-80
2021/07/25 07:03:10;;;;;;;12.23;6.93;;;27.70;56.10;;;;;;5026655;28;20108;-77
2021/07/25 07:05:36;;;;;;;12.13;7.32;;;28.00;56.20;;;;;;5026587;28;20064;-79
2021/07/25 07:08:04;;;;;;;13.70;7.00;;;28.20;53.10;;;;;;5026340;28;20549;-81
2021/07/25 07:10:33;;;;;;;10.98;7.82;;;28.40;52.80;;;;;;5008623;28;20174;-82
2021/07/25 07:13:00;;;;;;;11.35;8.35;;;28.90;52.30;;;;;;5008335;28;20035;-80
2021/07/25 07:15:27;;;;;;;13.35;7.43;;;29.20;49.80;;;;;;5008402;28;20025;-81
2021/07/25 07:17:55;;;;;;;13.15;7.65;;;28.90;50.10;;;;;;5008875;28;20034;-82
2021/07/25 07:20:21;;;;;;;12.50;7.18;;;28.80;49.60;;;;;;5007428;28;20032;-79
2021/07/25 07:23:11;;;;;;;16.02;7.70;;;28.30;50.60;;;;;;5007524;28;20031;-81
2021/07/25 07:25:42;;;;;;;10.45;7.72;;;28.30;52.30;;;;;;5006982;28;20467;-81
2021/07/25 07:28:08;;;;;;;10.45;6.68;;;28.00;51.40;;;;;;5005330;28;20497;-81
2021/07/25 07:30:35;;;;;;;8.52;6.38;;;28.00;52.30;;;;;;5006760;28;20025;-80
2021/07/25 07:33:09;;;;;;;11.95;6.90;;;28.60;51.60;;;;;;5007298;28;20022;-81
2021/07/25 07:35:35;;;;;;;12.85;6.97;;;28.70;52.20;;;;;;5007386;28;20060;-81
2021/07/25 07:38:01;;;;;;;9.45;6.82;;;29.00;51.70;;;;;;5007673;28;20029;-81
2021/07/25 07:40:27;;;;;;;10.90;6.43;;;29.20;50.80;;;;;;5024700;28;20117;-80
2021/07/25 07:42:52;;;;;;;9.73;6.43;;;29.50;51.10;;;;;;5006991;28;20022;-80
2021/07/25 07:45:18;;;;;;;8.75;6.85;;;29.30;50.00;;;;;;5007269;28;20041;-79
2021/07/25 07:47:48;;;;;;;18.38;7.32;;;28.90;50.40;;;;;;5024776;28;20025;-80
2021/07/25 07:50:15;;;;;;;13.40;6.82;;;28.50;52.00;;;;;;5025195;28;20030;-84
2021/07/25 07:52:41;;;;;;;11.32;6.65;;;28.00;52.90;;;;;;5007451;28;20682;-83
2021/07/25 07:55:07;;;;;;;10.45;7.25;;;27.50;54.60;;;;;;5026371;28;20501;-83
2021/07/25 07:57:33;;;;;;;10.85;7.45;;;26.90;55.00;;;;;;5008574;28;20091;-83
2021/07/25 07:59:59;;;;;;;9.88;6.90;;;26.60;56.60;;;;;;5008356;28;20030;-81
2021/07/25 08:02:24;;;;;;;10.55;7.18;;;26.20;57.60;;;;;;5008472;28;20033;-80
2021/07/25 08:04:50;;;;;;;11.75;7.32;;;25.90;59.20;;;;;;5008477;28;20112;-81
2021/07/25 08:07:16;;;;;;;12.57;7.47;;;25.80;59.70;;;;;;5025937;28;20033;-82
2021/07/25 08:09:42;;;;;;;11.27;7.30;;;25.80;59.40;;;;;;5007367;28;20067;-81
2021/07/25 08:12:08;;;;;;;17.00;8.13;;;25.60;60.00;;;;;;5025165;28;20033;-81
2021/07/25 08:14:34;;;;;;;10.18;6.93;;;25.30;61.70;;;;;;5004616;28;20041;-82
2021/07/25 08:17:00;;;;;;;19.88;7.55;;;25.20;62.30;;;;;;5006823;28;20025;-82
2021/07/25 08:19:26;;;;;;;17.00;7.13;;;25.00;62.80;;;;;;5007047;28;20619;-82
2021/07/25 08:21:52;;;;;;;11.35;7.43;;;24.90;63.00;;;;;;5008647;28;20060;-83
2021/07/25 08:24:17;;;;;;;12.10;6.82;;;24.70;63.70;;;;;;5025989;28;20025;-85
2021/07/25 08:26:43;;;;;;;10.10;7.20;;;24.50;64.70;;;;;;5029481;28;20034;-81
2021/07/25 08:29:09;;;;;;;9.93;7.20;;;24.40;64.40;;;;;;5027647;28;20052;-83
2021/07/25 08:31:35;;;;;;;22.48;8.52;;;24.30;65.70;;;;;;5023984;28;20577;-87
2021/07/25 08:34:00;;;;;;;13.82;7.40;;;24.30;65.90;;;;;;5036618;28;20583;-85
2021/07/25 08:36:26;;;;;;;16.35;8.35;;;24.20;66.50;;;;;;5010234;28;20067;-86
2021/07/25 08:38:52;;;;;;;19.20;8.35;;;24.00;67.10;;;;;;5009498;28;20068;-84
2021/07/25 08:41:39;;;;;;;13.05;8.45;;;23.90;68.50;;;;;;5011880;28;20111;-82
2021/07/25 08:44:42;;;;;;;20.52;8.73;;;23.90;69.70;;;;;;5032085;28;20060;-83
2021/07/25 08:47:26;;;;;;;12.57;8.93;;;23.90;73.30;;;;;;5008680;28;20082;-85
2021/07/25 08:49:56;;;;;;;14.88;9.15;;;23.90;73.10;;;;;;5025397;28;20503;-85
2021/07/25 08:52:29;;;;;;;15.88;9.20;;;23.70;74.90;;;;;;5024080;28;20033;-84
2021/07/25 08:54:56;;;;;;;10.40;7.85;;;23.80;75.10;;;;;;5011435;28;20044;-83
2021/07/25 08:57:25;;;;;;;16.75;9.70;;;23.80;74.90;;;;;;5031481;28;20050;-83
2021/07/25 08:59:53;;;;;;;14.20;9.70;;;23.70;75.40;;;;;;5010226;28;20043;-84
2021/07/25 09:02:24;;;;;;;18.33;10.60;;;23.80;74.10;;;;;;5033621;28;20037;-82
2021/07/25 09:04:51;;;;;;;11.05;7.35;;;23.90;73.90;;;;;;5003346;28;20057;-83
2021/07/25 09:07:19;;;;;;;20.02;8.30;;;24.10;73.60;;;;;;5035517;28;20098;-85
2021/07/25 09:09:47;;;;;;;11.93;8.20;;;24.50;72.40;;;;;;5031156;28;20113;-82
2021/07/25 09:12:14;;;;;;;10.32;7.50;;;24.70;69.80;;;;;;5007297;28;20139;-81
2021/07/25 09:14:50;;;;;;;12.10;8.55;;;24.80;70.00;;;;;;5004656;28;20113;-82
2021/07/25 09:17:16;;;;;;;13.45;7.13;;;25.00;70.30;;;;;;5006229;28;20073;-81
2021/07/25 09:20:12;;;;;;;9.13;6.38;;;25.40;70.30;;;;;;5035323;28;20493;-81
2021/07/25 09:23:24;;;;;;;16.08;7.28;;;26.30;66.80;;;;;;5001068;28;20156;-79
2021/07/25 09:25:56;;;;;;;9.23;6.53;;;26.90;62.70;;;;;;5032771;28;20079;-80
2021/07/25 09:28:26;;;;;;;9.80;7.65;;;27.20;62.30;;;;;;5032717;28;20108;-79
2021/07/25 09:30:52;;;;;;;12.70;7.95;;;27.30;60.50;;;;;;5026624;28;20411;-81
2021/07/25 09:33:32;;;;;;;8.82;7.60;;;27.60;60.10;;;;;;5030864;28;20124;-83
2021/07/25 09:36:09;;;;;;;12.95;7.22;;;27.70;59.30;;;;;;5005170;28;20062;-82
2021/07/25 09:38:36;;;;;;;12.88;8.45;;;27.70;59.20;;;;;;5028810;28;20104;-81
2021/07/25 09:41:13;;;;;;;10.00;6.75;;;28.10;58.90;;;;;;5010275;28;20055;-81
2021/07/25 09:43:39;;;;;;;12.52;7.80;;;28.10;57.30;;;;;;5027325;28;20758;-80
2021/07/25 09:46:05;;;;;;;10.90;7.78;;;28.00;56.80;;;;;;5010158;28;20049;-80
2021/07/25 09:48:33;;;;;;;15.68;7.88;;;27.90;57.60;;;;;;5010502;28;20021;-81
2021/07/25 09:51:17;;;;;;;10.18;7.15;;;27.80;58.30;;;;;;5009927;28;20124;-81
2021/07/25 09:53:48;;;;;;;11.95;7.50;;;27.90;57.60;;;;;;5010259;28;20026;-81
2021/07/25 09:56:14;;;;;;;11.07;8.15;;;27.90;58.00;;;;;;5028017;28;20109;-82
2021/07/25 09:58:41;;;;;;;10.35;7.55;;;28.10;57.00;;;;;;5027966;28;20053;-82
2021/07/25 10:01:07;;;;;;;10.75;7.07;;;28.20;57.00;;;;;;5009705;28;20693;-81
2021/07/25 10:03:33;;;;;;;14.07;7.15;;;28.40;56.40;;;;;;5010015;28;20474;-81
2021/07/25 10:06:19;;;;;;;17.75;7.05;;;29.00;55.40;;;;;;5010059;28;20492;-81
2021/07/25 10:08:45;;;;;;;;;;;29.20;54.00;;;;;;5009479;28;20033;-81
2021/07/25 10:11:20;;;;;;;9.40;6.38;;;29.30;54.80;;;;;;5027337;28;19913;-81
2021/07/25 10:13:48;;;;;;;16.10;7.53;;;29.30;54.40;;;;;;5010083;28;20041;-81
2021/07/25 10:16:18;;;;;;;12.13;7.20;;;29.40;54.20;;;;;;5009037;28;20791;-79
2021/07/25 10:18:47;;;;;;;17.52;7.22;;;29.60;54.00;;;;;;5036715;28;20114;-79
2021/07/25 10:21:13;;;;;;;11.20;6.68;;;29.80;53.40;;;;;;5029207;28;20061;-81
2021/07/25 10:23:52;;;;;;;11.38;6.50;;;29.90;53.60;;;;;;5038717;28;20041;-79
2021/07/25 10:26:22;;;;;;;9.07;6.68;;;29.60;53.50;;;;;;5026454;28;20498;-80
2021/07/25 10:28:48;;;;;;;11.85;6.65;;;29.40;52.40;;;;;;4995763;28;20045;-79
2021/07/25 10:31:18;;;;;;;11.05;7.38;;;29.30;53.70;;;;;;5008591;28;20512;-81
2021/07/25 10:33:48;;;;;;;11.50;5.78;;;29.20;53.90;;;;;;5010707;28;20038;-81
2021/07/25 10:36:16;;;;;;;21.02;6.60;;;29.20;54.00;;;;;;5024889;28;20037;-82
2021/07/25 10:38:43;;;;;;;12.32;5.85;;;29.00;54.20;;;;;;5028951;28;20082;-81
2021/07/25 10:41:09;;;;;;;13.05;5.90;;;29.10;54.90;;;;;;5030190;28;20045;-81
2021/07/25 10:43:36;;;;;;;11.88;5.38;;;29.10;54.10;;;;;;5007447;28;20138;-79
2021/07/25 10:46:13;;;;;;;9.13;5.53;;;29.10;53.70;;;;;;5030348;28;20258;-79
2021/07/25 10:49:04;;;;;;;14.27;5.32;;;29.50;53.00;;;;;;5009334;28;20604;-81
2021/07/25 10:51:31;;;;;;;8.30;5.95;;;29.70;51.70;;;;;;5005796;28;20087;-79
2021/07/25 10:54:23;;;;;;;7.75;5.93;;;30.00;51.10;;;;;;5026537;28;20040;-81
2021/07/25 10:57:02;;;;;;;11.02;5.65;;;30.00;51.80;;;;;;5008640;28;20055;-80
2021/07/25 10:59:52;;;;;;;8.55;5.47;;;30.00;50.70;;;;;;5008856;28;20088;-79
2021/07/25 11:02:26;;;;;;;12.15;5.05;;;30.00;50.30;;;;;;5026366;28;20052;-81
2021/07/25 11:04:55;;;;;;;12.75;5.50;;;30.00;51.60;;;;;;5008993;28;20458;-80
2021/07/25 11:07:24;;;;;;;11.13;4.80;;;30.00;50.50;;;;;;5008769;28;20037;-82
2021/07/25 11:10:07;;;;;;;8.93;5.45;;;29.90;49.20;;;;;;5026460;28;20478;-81
2021/07/25 11:12:48;;;;;;;16.05;5.50;;;29.70;50.70;;;;;;5008336;28;20037;-81
2021/07/25 11:15:33;;;;;;;7.47;5.55;;;29.70;49.00;;;;;;5026396;28;20596;-82
2021/07/25 11:17:59;;;;;;;7.65;5.28;;;29.50;49.00;;;;;;5026633;28;20584;-81
2021/07/25 11:20:54;;;;;;;9.20;5.65;;;29.50;48.40;;;;;;5008729;28;20116;-81
2021/07/25 11:23:19;;;;;;;13.55;5.93;;;29.40;48.60;;;;;;5026325;28;20021;-81
2021/07/25 11:25:47;;;;;;;9.68;5.57;;;29.60;49.10;;;;;;5008813;28;20040;-81
2021/07/25 11:28:40;;;;;;;7.70;5.40;;;29.70;47.90;;;;;;5008550;28;20087;-80
2021/07/25 11:31:07;;;;;;;11.43;4.70;;;30.00;48.10;;;;;;5026123;28;20486;-81
2021/07/25 11:33:45;;;;;;;12.30;5.93;;;30.20;45.00;;;;;;5008149;28;20025;-80
2021/07/25 11:36:13;;;;;;;6.05;4.80;;;30.20;43.90;;;;;;5026359;28;20021;-82
2021/07/25 11:38:40;;;;;;;9.98;5.35;;;30.10;44.30;;;;;;5026039;28;20029;-81
2021/07/25 11:41:07;;;;;;;7.18;4.90;;;30.10;44.60;;;;;;5026230;28;20045;-81
2021/07/25 11:43:53;;;;;;;12.40;5.30;;;30.10;44.90;;;;;;5008512;28;20452;-82
2021/07/25 11:46:33;;;;;;;14.50;4.90;;;30.20;44.90;;;;;;5025917;28;20037;-82
2021/07/25 11:49:14;;;;;;;14.52;5.15;;;30.40;45.40;;;;;;5008208;28;20061;-81
2021/07/25 11:51:55;;;;;;;10.32;4.63;;;30.60;43.80;;;;;;5008116;28;20040;-80
2021/07/25 11:54:32;;;;;;;9.25;4.82;;;30.80;44.30;;;;;;5026018;28;20018;-81
2021/07/25 11:57:12;;;;;;;8.85;6.00;;;30.80;43.70;;;;;;5008282;28;20167;-81
2021/07/25 11:59:47;;;;;;;15.63;5.75;;;30.70;42.50;;;;;;5025493;28;20478;-81
2021/07/25 12:02:13;;;;;;;14.40;5.90;;;30.50;43.00;;;;;;5008365;28;20648;-82
2021/07/25 12:04:43;;;;;;;18.35;4.88;;;30.40;43.80;;;;;;5025886;28;20029;-78
2021/07/25 12:07:17;;;;;;;8.18;5.30;;;30.30;44.30;;;;;;5026616;28;20034;-80
2021/07/25 12:09:45;;;;;;;10.27;4.53;;;30.40;44.40;;;;;;5029610;28;20029;-79
2021/07/25 12:12:17;;;;;;;12.00;3.95;;;30.60;42.80;;;;;;5012031;28;20036;-80
2021/07/25 12:14:51;;;;;;;12.93;4.70;;;30.80;40.20;;;;;;5029484;28;20030;-81
2021/07/25 12:17:38;;;;;;;9.48;5.22;;;31.20;39.50;;;;;;5012042;28;20119;-81
2021/07/25 12:20:12;;;;;;;7.65;5.07;;;31.50;38.60;;;;;;5012236;28;20343;-80
2021/07/25 12:23:02;;;;;;;8.80;4.93;;;31.80;38.10;;;;;;5011903;28;20060;-81
2021/07/25 12:25:34;;;;;;;13.68;5.07;;;31.90;36.70;;;;;;5011559;28;20550;-81
2021/07/25 12:28:14;;;;;;;7.90;4.50;;;32.10;37.20;;;;;;5011341;28;20513;-81
2021/07/25 12:30:43;;;;;;;14.52;4.93;;;32.20;36.90;;;;;;5011988;28;20021;-80
2021/07/25 12:33:10;;;;;;;9.75;4.45;;;32.50;37.20;;;;;;5029569;28;20177;-80
2021/07/25 12:35:37;;;;;;;16.33;5.00;;;32.30;36.80;;;;;;5011263;28;20145;-81
2021/07/25 12:38:09;;;;;;;8.55;4.47;;;32.10;37.90;;;;;;5011778;28;20497;-80
2021/07/25 12:40:55;;;;;;;12.57;4.88;;;32.10;37.50;;;;;;5011180;28;20116;-80
2021/07/25 12:43:22;;;;;;;12.65;4.63;;;32.00;37.90;;;;;;5028677;28;20091;-81
2021/07/25 12:45:49;;;;;;;11.75;4.75;;;32.10;38.30;;;;;;5011126;28;20037;-79
2021/07/25 12:48:15;;;;;;;6.68;4.45;;;32.00;36.20;;;;;;5011559;28;20025;-80
2021/07/25 12:53:47;;;;;;;6.47;4.70;;;31.50;37.30;;;;;;5029287;28;20036;-80
2021/07/25 12:56:20;;;;;;;9.55;5.47;;;31.50;36.20;;;;;;5011110;28;20079;-80